Time;durP1;ratioP1;P1;durP2;ratioP2;P2;SDS_P1;SDS_P2;PMS_P1;PMS_P2;Temp;Humidity;BMP_temperature;BMP_pressure;BME280_temperature;BME280_humidity;BME280_pressure;Samples;Min_cycle;Max_cycle;Signal;HPM_P1;HPM_P2
2022/07/20 00:01:55;;;;;;;14.63;13.07;;;;;;;28.06;49.75;98494.44;5048208;28;20462;-89
2022/07/20 00:04:21;;;;;;;16.40;13.00;;;;;;;28.11;49.77;98487.31;5076904;28;20028;-87
2022/07/20 00:06:46;;;;;;;15.35;13.63;;;;;;;28.06;49.82;98491.75;5067257;28;20024;-85
2022/07/20 00:11:57;;;;;;;15.50;12.90;;;;;;;27.96;50.12;98505.59;5077644;28;20028;-87
2022/07/20 00:14:22;;;;;;;19.00;13.68;;;;;;;27.88;50.26;98495.63;5078885;28;20103;-91
2022/07/20 00:16:48;;;;;;;16.67;13.57;;;;;;;27.88;50.10;98501.03;5062612;28;20037;-89
2022/07/20 00:19:14;;;;;;;16.00;12.73;;;;;;;27.83;50.22;98493.13;5067853;28;20078;-88
2022/07/20 00:21:40;;;;;;;15.88;12.73;;;;;;;27.85;50.20;98497.09;5079616;28;20032;-89
2022/07/20 00:24:08;;;;;;;16.88;13.93;;;;;;;27.69;50.63;98494.13;5097706;28;20421;-87
2022/07/20 00:26:34;;;;;;;16.27;13.30;;;;;;;27.68;50.65;98491.75;5079304;28;20073;-89
2022/07/20 00:28:59;;;;;;;16.20;13.75;;;;;;;27.62;50.68;98480.34;5099283;28;20113;-88
2022/07/20 00:31:25;;;;;;;18.50;14.02;;;;;;;27.67;50.62;98479.38;5113581;28;20115;-86
2022/07/20 00:33:50;;;;;;;14.25;12.75;;;;;;;27.57;50.87;98477.84;5095344;28;20051;-86
2022/07/20 00:36:19;;;;;;;15.32;13.65;;;;;;;27.62;51.11;98488.44;5080525;28;20081;-88
2022/07/20 00:38:45;;;;;;;16.83;13.73;;;;;;;27.57;51.17;98491.31;5080925;28;20035;-87
2022/07/20 00:41:11;;;;;;;15.25;13.65;;;;;;;27.34;51.41;98478.03;5067958;28;20040;-88
2022/07/20 00:44:01;;;;;;;17.65;13.48;;;;;;;27.24;51.34;98492.63;5084402;28;20078;-91
2022/07/20 00:46:29;;;;;;;15.25;13.65;;;;;;;27.45;51.58;98494.66;5083379;28;20038;-88
2022/07/20 00:48:56;;;;;;;17.55;13.93;;;;;;;27.37;51.69;98488.94;5086235;28;20111;-89
2022/07/20 00:51:21;;;;;;;23.02;14.00;;;;;;;27.31;51.71;98489.41;5083367;28;20058;-89
2022/07/20 00:53:47;;;;;;;17.58;14.85;;;;;;;27.32;51.87;98491.03;5102274;28;20542;-88
2022/07/20 00:56:15;;;;;;;21.33;14.10;;;;;;;27.28;52.02;98498.16;5071253;28;20032;-88
2022/07/20 00:58:41;;;;;;;17.38;14.00;;;;;;;27.34;51.95;98505.75;5069547;28;20054;-90
2022/07/20 01:01:07;;;;;;;15.98;14.20;;;;;;;27.30;52.07;98509.38;5064858;28;20424;-88
2022/07/20 01:03:33;;;;;;;17.55;14.30;;;;;;;27.12;52.53;98503.25;5099444;28;20081;-87
2022/07/20 01:05:58;;;;;;;16.73;14.98;;;;;;;27.13;52.56;98508.31;5080633;28;20393;-89
2022/07/20 01:08:26;;;;;;;17.98;14.23;;;;;;;26.91;53.54;98504.66;5101945;28;20059;-90
2022/07/20 01:10:52;;;;;;;16.30;13.43;;;;;;;26.86;53.38;98502.13;5066503;28;20032;-86
2022/07/20 01:13:18;;;;;;;15.15;13.60;;;;;;;26.82;53.19;98503.84;5081846;28;20135;-88
2022/07/20 01:15:45;;;;;;;16.17;14.50;;;;;;;26.73;53.52;98508.44;5099711;28;20032;-87
2022/07/20 01:18:11;;;;;;;19.80;14.82;;;;;;;26.71;53.48;98510.63;5098490;28;20031;-89
2022/07/20 01:20:43;;;;;;;16.50;13.45;;;;;;;26.79;53.06;98521.41;5096530;28;20050;-87
2022/07/20 01:23:09;;;;;;;15.88;13.23;;;;;;;26.78;53.53;98527.13;5081006;28;20039;-88
2022/07/20 01:25:36;;;;;;;16.58;14.45;;;;;;;26.82;53.05;98522.69;5082259;28;20036;-89
2022/07/20 01:28:06;;;;;;;15.50;13.85;;;;;;;26.80;53.12;98514.91;5079178;28;20097;-87
2022/07/20 01:30:32;;;;;;;15.55;13.77;;;;;;;26.80;53.13;98514.16;5098773;28;20024;-88
2022/07/20 01:33:01;;;;;;;15.80;13.50;;;;;;;26.87;53.12;98527.94;5083385;28;20105;-89
2022/07/20 01:35:26;;;;;;;15.88;13.40;;;;;;;26.79;53.17;98523.34;5085193;28;20028;-88
2022/07/20 01:37:54;;;;;;;18.02;13.95;;;;;;;26.79;53.31;98507.19;5067933;28;20048;-87
2022/07/20 01:40:20;;;;;;;17.85;14.27;;;;;;;26.76;53.44;98515.88;5088552;28;20070;-87
2022/07/20 01:42:45;;;;;;;17.00;14.02;;;;;;;26.68;53.42;98512.06;5077411;28;20027;-88
2022/07/20 01:45:11;;;;;;;15.27;13.57;;;;;;;26.69;53.60;98526.31;5093544;28;20032;-90
2022/07/20 01:47:37;;;;;;;14.63;13.18;;;;;;;26.66;53.59;98522.38;5113133;28;20038;-89
2022/07/20 01:50:03;;;;;;;16.63;13.75;;;;;;;26.54;54.12;98512.22;5069793;28;20093;-88
2022/07/20 01:52:28;;;;;;;15.38;13.23;;;;;;;26.39;54.43;98521.50;5091979;28;20062;-85
2022/07/20 01:54:54;;;;;;;15.27;13.80;;;;;;;26.40;54.18;98516.94;5086652;28;20036;-88
2022/07/20 01:57:20;;;;;;;15.45;13.05;;;;;;;26.52;53.92;98509.03;5077215;28;20020;-89
2022/07/20 01:59:45;;;;;;;15.35;13.63;;;;;;;26.48;54.10;98505.38;5092148;28;20031;-87
2022/07/20 02:02:14;;;;;;;17.15;13.75;;;;;;;26.41;54.58;98502.38;5072278;28;20093;-87
2022/07/20 02:04:40;;;;;;;15.27;13.70;;;;;;;26.36;54.43;98500.63;5087233;28;20054;-88
2022/07/20 02:07:05;;;;;;;15.30;13.07;;;;;;;26.44;54.46;98502.53;5076802;28;20036;-89
2022/07/20 02:09:32;;;;;;;15.57;13.38;;;;;;;26.36;54.32;98514.88;5115988;28;20063;-91
2022/07/20 02:11:57;;;;;;;15.75;13.82;;;;;;;26.23;54.85;98507.69;5114373;28;20028;-85
2022/07/20 02:14:23;;;;;;;16.15;14.00;;;;;;;26.28;54.84;98504.09;5129560;28;20042;-88
2022/07/20 02:16:51;;;;;;;16.17;13.45;;;;;;;26.16;55.24;98504.66;5086530;28;20040;-87
2022/07/20 02:19:17;;;;;;;18.27;13.90;;;;;;;26.08;55.45;98517.75;5080620;28;20024;-88
2022/07/20 02:21:43;;;;;;;17.98;14.10;;;;;;;26.04;55.80;98515.97;5067499;28;20070;-88
2022/07/20 02:24:09;;;;;;;15.88;13.98;;;;;;;25.76;56.26;98513.50;5081161;28;20072;-87
2022/07/20 02:26:35;;;;;;;15.70;14.10;;;;;;;25.73;56.47;98520.28;5103297;28;20040;-89
2022/07/20 02:29:00;;;;;;;16.35;14.57;;;;;;;25.59;56.65;98512.28;5118661;28;20101;-89
2022/07/20 02:31:27;;;;;;;20.17;14.45;;;;;;;25.57;56.86;98494.91;5087871;28;20126;-89
2022/07/20 02:33:52;;;;;;;16.38;13.75;;;;;;;25.63;56.47;98499.81;5079086;28;20048;-91
2022/07/20 02:36:20;;;;;;;15.82;14.20;;;;;;;25.70;56.71;98496.69;5092242;28;20492;-90
2022/07/20 02:38:46;;;;;;;16.10;14.40;;;;;;;25.60;56.86;98502.34;5091606;28;20035;-89
2022/07/20 02:41:12;;;;;;;16.25;14.65;;;;;;;25.68;56.81;98512.34;5105315;28;20439;-89
2022/07/20 02:43:40;;;;;;;15.25;13.65;;;;;;;25.59;57.14;98496.16;5103774;28;20070;-87
2022/07/20 02:46:07;;;;;;;15.23;13.57;;;;;;;25.43;57.48;98493.06;5116012;28;20484;-85
2022/07/20 02:48:33;;;;;;;16.65;13.82;;;;;;;25.68;56.96;98498.91;5097236;28;20031;-84
2022/07/20 02:51:00;;;;;;;17.70;14.65;;;;;;;25.71;56.98;98492.91;5077767;28;20538;-85
2022/07/20 02:53:27;;;;;;;15.40;13.68;;;;;;;25.73;57.10;98496.09;5130282;28;20023;-86
2022/07/20 02:55:52;;;;;;;15.63;13.80;;;;;;;25.48;57.29;98479.53;5115193;28;20038;-85
2022/07/20 02:58:20;;;;;;;19.23;15.00;;;;;;;25.47;57.70;98496.75;5100565;28;20024;-85
2022/07/20 03:00:46;;;;;;;15.35;13.70;;;;;;;25.46;57.13;98476.31;5099820;28;20047;-84
2022/07/20 03:03:12;;;;;;;16.92;14.02;;;;;;;25.55;57.23;98486.34;5099607;28;20419;-84
2022/07/20 03:05:38;;;;;;;16.42;14.38;;;;;;;25.61;56.99;98477.84;5083369;28;20039;-86
2022/07/20 03:08:06;;;;;;;18.02;14.35;;;;;;;25.68;56.90;98477.41;5083432;28;20381;-85
2022/07/20 03:10:32;;;;;;;19.45;14.23;;;;;;;25.38;57.90;98479.75;5083118;28;20084;-84
2022/07/20 03:13:03;;;;;;;19.08;14.82;;;;;;;25.46;57.88;98491.66;5118041;28;20024;-86
2022/07/20 03:15:28;;;;;;;17.35;14.85;;;;;;;25.22;58.50;98485.50;5118025;28;20118;-87
2022/07/20 03:17:54;;;;;;;20.08;15.27;;;;;;;25.15;58.58;98487.81;5099441;28;20062;-87
2022/07/20 03:20:24;;;;;;;18.50;15.00;;;;;;;25.07;58.74;98475.13;5099977;28;20381;-84
2022/07/20 03:22:50;;;;;;;18.50;15.00;;;;;;;25.20;58.71;98485.00;5117498;28;20437;-86
2022/07/20 03:25:16;;;;;;;18.40;14.75;;;;;;;25.26;58.59;98490.25;5117874;28;20043;-86
2022/07/20 03:27:42;;;;;;;17.15;15.27;;;;;;;25.30;58.25;98483.16;5118560;28;20031;-86
2022/07/20 03:30:08;;;;;;;20.75;15.88;;;;;;;25.28;58.70;98488.88;5100581;28;20031;-86
2022/07/20 03:32:34;;;;;;;15.57;13.98;;;;;;;25.25;58.51;98473.34;5100421;28;20023;-85
2022/07/20 03:35:00;;;;;;;17.55;14.82;;;;;;;25.29;58.57;98484.28;5100434;28;20405;-85
2022/07/20 03:37:26;;;;;;;21.10;15.38;;;;;;;25.15;58.94;98476.28;5119315;28;20027;-88
2022/07/20 03:39:52;;;;;;;17.55;15.32;;;;;;;25.19;59.05;98478.06;5120557;28;20032;-87
2022/07/20 03:42:20;;;;;;;20.45;15.40;;;;;;;25.06;59.23;98473.53;5118878;28;20081;-87
2022/07/20 03:44:45;;;;;;;18.13;15.18;;;;;;;25.09;59.30;98476.41;5100989;28;20043;-87
2022/07/20 03:47:11;;;;;;;20.35;16.23;;;;;;;25.01;59.54;98479.03;5118995;28;20530;-89
2022/07/20 03:49:41;;;;;;;19.05;15.40;;;;;;;24.99;59.71;98482.00;5087224;28;20051;-88
2022/07/20 03:52:07;;;;;;;18.05;16.15;;;;;;;24.92;60.05;98493.16;5102465;28;20122;-87
2022/07/20 03:54:33;;;;;;;19.75;15.88;;;;;;;25.00;60.07;98486.28;5119881;28;20055;-88
2022/07/20 03:57:03;;;;;;;18.13;15.73;;;;;;;25.17;59.68;98477.56;5107829;28;20039;-88
2022/07/20 03:59:33;;;;;;;19.75;16.10;;;;;;;25.22;59.81;98482.81;5083095;28;20084;-87
2022/07/20 04:01:59;;;;;;;18.55;16.55;;;;;;;25.24;59.81;98477.94;5099582;28;20065;-88
2022/07/20 04:04:25;;;;;;;29.17;19.75;;;;;;;25.44;59.98;98478.53;5098131;28;20039;-87
2022/07/20 04:06:50;;;;;;;25.85;21.40;;;;;;;25.19;60.95;98463.81;5104326;28;20036;-87
2022/07/20 04:09:43;;;;;;;38.95;30.52;;;;;;;25.23;61.08;98472.84;5100028;28;20370;-86
2022/07/20 04:12:03;;;;;;;55.35;42.13;;;;;;;25.34;61.39;98484.13;5105174;28;20105;-88
2022/07/20 04:14:29;;;;;;;72.70;52.67;;;;;;;25.08;62.14;98499.00;5125960;28;20058;-86
2022/07/20 04:16:54;;;;;;;75.60;55.10;;;;;;;24.67;63.52;98489.16;5109767;28;20039;-87
2022/07/20 04:19:23;;;;;;;73.50;54.05;;;;;;;24.62;64.11;98497.28;5095575;28;20056;-87
2022/07/20 04:21:49;;;;;;;79.40;53.55;;;;;;;24.62;64.11;98492.72;5115167;28;20040;-87
2022/07/20 04:24:14;;;;;;;67.25;50.83;;;;;;;24.52;64.74;98482.19;5117827;28;20505;-87
2022/07/20 04:26:40;;;;;;;73.82;50.70;;;;;;;24.48;64.81;98486.59;5118220;28;20051;-87
2022/07/20 04:29:06;;;;;;;61.17;46.17;;;;;;;24.44;65.25;98482.91;5135940;28;20039;-86
2022/07/20 04:31:32;;;;;;;44.10;34.50;;;;;;;24.27;66.15;98486.19;5115669;28;20027;-86
2022/07/20 04:33:58;;;;;;;36.85;29.67;;;;;;;24.28;66.35;98493.19;5097550;28;20387;-86
2022/07/20 04:36:24;;;;;;;31.95;26.80;;;;;;;24.07;67.30;98485.50;5079783;28;20121;-86
2022/07/20 04:38:49;;;;;;;32.72;24.70;;;;;;;23.82;68.30;98488.38;5082182;28;20032;-88
2022/07/20 04:41:15;;;;;;;32.33;23.52;;;;;;;24.08;68.27;98495.16;5081220;28;20439;-86
2022/07/20 04:43:43;;;;;;;28.77;22.42;;;;;;;23.70;69.04;98496.06;5080003;28;20033;-88
2022/07/20 04:46:08;;;;;;;27.50;21.50;;;;;;;23.61;69.95;98504.00;5079638;28;20553;-85
2022/07/20 04:48:34;;;;;;;25.42;20.50;;;;;;;23.56;70.39;98528.19;5079177;28;20131;-86
2022/07/20 04:51:00;;;;;;;22.65;19.48;;;;;;;23.60;70.63;98512.34;5033891;28;20475;-88
2022/07/20 04:53:26;;;;;;;27.13;20.02;;;;;;;23.56;71.06;98535.44;5057926;28;20067;-87
2022/07/20 04:55:52;;;;;;;27.63;18.98;;;;;;;23.50;71.40;98508.72;5066142;28;20039;-86
2022/07/20 04:58:17;;;;;;;24.08;19.30;;;;;;;23.77;70.84;98506.41;5059145;28;20021;-85
2022/07/20 05:00:43;;;;;;;24.38;18.65;;;;;;;23.76;71.56;98519.00;5077447;28;20086;-85
2022/07/20 05:03:09;;;;;;;24.33;17.30;;;;;;;23.38;72.43;98516.41;5061347;28;20040;-88
2022/07/20 05:05:35;;;;;;;26.13;17.90;;;;;;;23.65;72.36;98525.66;5038759;28;20120;-87
2022/07/20 05:08:03;;;;;;;19.92;17.25;;;;;;;23.70;72.04;98514.84;5038358;28;20028;-86
2022/07/20 05:10:29;;;;;;;21.17;16.25;;;;;;;23.75;72.07;98528.13;5038600;28;20033;-87
2022/07/20 05:12:55;;;;;;;19.52;16.42;;;;;;;23.67;72.05;98523.47;5033813;28;20036;-88
2022/07/20 05:15:23;;;;;;;18.38;16.25;;;;;;;24.07;71.95;98537.25;5064282;28;20037;-87
2022/07/20 05:17:52;;;;;;;23.00;16.80;;;;;;;23.92;72.54;98532.13;5038034;28;20032;-88
2022/07/20 05:20:18;;;;;;;20.58;16.77;;;;;;;24.17;72.18;98547.00;5056950;28;20096;-88
2022/07/20 05:22:44;;;;;;;18.88;15.77;;;;;;;23.72;73.92;98542.13;5039185;28;20036;-87
2022/07/20 05:25:10;;;;;;;21.08;16.40;;;;;;;23.91;73.25;98538.59;5027136;28;20040;-87
2022/07/20 05:27:36;;;;;;;19.52;16.02;;;;;;;23.88;73.48;98528.47;5043707;28;20040;-88
2022/07/20 05:30:03;;;;;;;19.63;15.60;;;;;;;24.01;73.72;98538.41;5040095;28;20039;-87
2022/07/20 05:32:29;;;;;;;23.42;16.02;;;;;;;23.91;74.35;98552.78;5055175;28;20029;-88
2022/07/20 05:34:55;;;;;;;22.67;16.05;;;;;;;23.51;76.06;98566.56;5089034;28;20079;-88
2022/07/20 05:37:21;;;;;;;19.90;16.10;;;;;;;23.29;77.31;98574.41;5063053;28;20056;-88
2022/07/20 05:39:47;;;;;;;23.13;15.05;;;;;;;23.13;78.36;98574.59;5057225;28;20115;-89
2022/07/20 05:42:13;;;;;;;20.05;13.73;;;;;;;23.29;78.59;98585.13;5075742;28;20096;-89
2022/07/20 05:44:39;;;;;;;21.58;15.13;;;;;;;22.80;80.75;98577.97;5071728;28;20127;-87
2022/07/20 05:47:09;;;;;;;17.67;14.07;;;;;;;22.86;81.56;98592.09;5066027;28;20375;-86
2022/07/20 05:49:36;;;;;;;18.05;14.43;;;;;;;22.82;82.66;98589.19;5080998;28;20050;-86
2022/07/20 05:52:03;;;;;;;20.35;14.20;;;;;;;22.82;84.17;98591.84;5075740;28;20032;-85
2022/07/20 05:54:29;;;;;;;21.58;14.52;;;;;;;23.00;85.02;98602.09;5079902;28;20058;-88
2022/07/20 05:56:55;;;;;;;21.15;14.40;;;;;;;23.06;85.98;98595.59;5082536;28;20488;-85
2022/07/20 05:59:21;;;;;;;22.15;13.07;;;;;;;22.39;89.23;98597.91;5086498;28;20485;-88
2022/07/20 06:01:46;;;;;;;26.13;15.32;;;;;;;22.37;91.66;98601.97;5094549;28;20035;-90
2022/07/20 06:04:13;;;;;;;23.98;15.40;;;;;;;22.24;94.35;98608.78;5061188;28;20024;-89
2022/07/20 06:06:39;;;;;;;22.67;15.27;;;;;;;21.88;98.59;98601.88;5078098;28;20036;-88
2022/07/20 06:09:06;;;;;;;25.83;16.27;;;;;;;21.94;100.00;98632.84;5085054;28;20111;-91
2022/07/20 06:11:33;;;;;;;21.88;16.23;;;;;;;22.11;100.00;98618.28;5054670;28;20056;-88
2022/07/20 06:13:59;;;;;;;30.30;17.95;;;;;;;22.17;100.00;98629.69;5068500;28;20035;-90
2022/07/20 06:16:26;;;;;;;23.63;17.00;;;;;;;22.52;100.00;98641.16;5067233;28;20028;-91
2022/07/20 06:18:51;;;;;;;26.25;18.02;;;;;;;22.91;99.80;98632.16;5070632;28;20036;-90
2022/07/20 06:21:17;;;;;;;23.13;17.88;;;;;;;22.94;99.32;98631.56;5064272;28;20044;-90
2022/07/20 06:23:44;;;;;;;24.90;18.60;;;;;;;22.87;98.25;98630.34;5068797;28;20032;-88
2022/07/20 06:26:09;;;;;;;22.27;18.25;;;;;;;23.07;98.13;98640.78;5063810;28;20110;-89
2022/07/20 06:28:35;;;;;;;26.40;18.05;;;;;;;23.23;97.81;98638.72;5058647;28;20478;-86
2022/07/20 06:31:01;;;;;;;25.40;17.27;;;;;;;22.97;98.48;98631.00;5058230;28;20094;-85
2022/07/20 06:33:27;;;;;;;24.95;16.92;;;;;;;23.42;97.05;98645.19;5066552;28;20044;-88
2022/07/20 06:35:53;;;;;;;20.38;15.50;;;;;;;-148.14;100.00;65945.72;5067418;28;20058;-90
2022/07/20 06:38:23;;;;;;;25.30;14.65;;;;;;;-148.14;100.00;65945.72;5064373;28;20068;-90
2022/07/20 06:40:49;;;;;;;17.65;14.43;;;;;;;-148.14;100.00;65945.72;5051952;28;20048;-88
2022/07/20 06:43:15;;;;;;;18.98;14.05;;;;;;;-148.14;100.00;65945.72;5067492;28;20028;-88
2022/07/20 06:45:41;;;;;;;15.88;12.85;;;;;;;-148.14;100.00;65945.72;5086194;28;20111;-87
2022/07/20 06:48:07;;;;;;;16.80;13.43;;;;;;;-148.14;100.00;65945.72;5049140;28;20024;-87
2022/07/20 06:50:33;;;;;;;19.50;13.18;;;;;;;-148.14;100.00;65945.72;5042725;28;20142;-89
2022/07/20 06:52:58;;;;;;;18.40;12.40;;;;;;;-148.14;100.00;65945.72;5068655;28;20031;-87
2022/07/20 06:55:26;;;;;;;23.70;12.93;;;;;;;-148.14;100.00;65945.72;5083385;28;20364;-86
2022/07/20 06:57:55;;;;;;;27.25;13.65;;;;;;;-148.14;100.00;65945.72;5087965;28;20024;-85
2022/07/20 07:00:20;;;;;;;21.23;13.93;;;;;;;-148.14;100.00;65945.72;5075237;28;20024;-84
2022/07/20 07:02:46;;;;;;;19.92;15.18;;;;;;;-148.14;100.00;65945.72;5046040;28;20477;-84
2022/07/20 07:05:12;;;;;;;23.92;15.80;;;;;;;-148.14;100.00;65945.72;5061037;28;20025;-84
2022/07/20 07:07:38;;;;;;;22.88;15.45;;;;;;;-148.14;100.00;65945.72;5085603;28;20082;-84
2022/07/20 07:10:04;;;;;;;21.40;15.95;;;;;;;-148.14;100.00;65945.72;5077924;28;20169;-89
2022/07/20 07:12:30;;;;;;;25.75;16.27;;;;;;;-148.14;100.00;65945.72;5066864;28;20047;-85
2022/07/20 07:14:55;;;;;;;23.58;14.77;;;;;;;-148.14;100.00;65945.72;5066837;28;20027;-83
2022/07/20 07:17:21;;;;;;;24.65;15.20;;;;;;;-148.14;100.00;65945.72;5065904;28;20028;-85
2022/07/20 07:19:47;;;;;;;22.17;14.85;;;;;;;-148.14;100.00;65945.72;5048933;28;20123;-85
2022/07/20 07:22:13;;;;;;;19.90;13.93;;;;;;;-148.14;100.00;65945.72;5082744;28;20052;-89
2022/07/20 07:24:39;;;;;;;19.02;14.02;;;;;;;-148.14;100.00;65945.72;5079554;28;20042;-91
2022/07/20 07:27:12;;;;;;;23.20;13.23;;;;;;;-148.14;100.00;65945.72;5057812;28;20031;-84
2022/07/20 07:29:41;;;;;;;18.05;12.80;;;;;;;-148.14;100.00;65945.72;5066226;28;20036;-86
2022/07/20 07:32:07;;;;;;;16.52;13.02;;;;;;;-148.14;100.00;65945.72;5063774;28;20505;-87
2022/07/20 07:34:32;;;;;;;19.30;13.13;;;;;;;-148.14;100.00;65945.72;5081312;28;20039;-88
2022/07/20 07:37:11;;;;;;;19.83;13.45;;;;;;;-148.14;100.00;65945.72;5057088;28;20047;-87
2022/07/20 07:39:57;;;;;;;20.25;14.05;;;;;;;-148.14;100.00;65945.72;5050481;28;20048;-87
2022/07/20 07:42:23;;;;;;;19.75;13.07;;;;;;;-148.14;100.00;65945.72;5038684;28;20040;-87
2022/07/20 07:44:49;;;;;;;13.40;11.32;;;;;;;-148.14;100.00;65945.72;5063236;28;20028;-86
2022/07/20 07:47:15;;;;;;;19.73;12.05;;;;;;;-148.14;100.00;65945.72;5065712;28;20124;-87
2022/07/20 07:49:41;;;;;;;16.25;10.88;;;;;;;-148.14;100.00;65945.72;5053335;28;20126;-87
2022/07/20 07:52:06;;;;;;;13.80;10.68;;;;;;;-148.14;100.00;65945.72;5084969;28;20024;-88
2022/07/20 07:54:32;;;;;;;22.20;12.00;;;;;;;-148.14;100.00;65945.72;5061665;28;20023;-82
2022/07/20 07:56:58;;;;;;;16.58;11.55;;;;;;;-148.14;100.00;65945.72;5063674;28;20479;-83
2022/07/20 07:59:23;;;;;;;16.50;11.15;;;;;;;-148.14;100.00;65945.72;5063288;28;20032;-84
2022/07/20 08:01:49;;;;;;;17.30;11.20;;;;;;;-148.14;100.00;65945.72;5075759;28;20032;-83
2022/07/20 08:04:15;;;;;;;18.88;11.60;;;;;;;-148.14;100.00;65945.72;5081448;28;20039;-86
2022/07/20 08:06:41;;;;;;;18.52;11.75;;;;;;;-148.14;100.00;65945.72;5083367;28;20039;-85
2022/07/20 08:09:07;;;;;;;18.38;11.13;;;;;;;-148.14;100.00;65945.72;5080679;28;20025;-86
2022/07/20 08:11:33;;;;;;;17.45;11.13;;;;;;;-148.14;100.00;65945.72;5066870;28;20446;-85
2022/07/20 08:14:02;;;;;;;18.83;11.77;;;;;;;-148.14;100.00;65945.72;5063242;28;20085;-84
2022/07/20 08:16:30;;;;;;;19.90;11.60;;;;;;;-148.14;100.00;65945.72;5061937;28;20075;-88
2022/07/20 08:18:56;;;;;;;17.40;10.70;;;;;;;-148.14;100.00;65945.72;5084951;28;20032;-88
2022/07/20 08:21:22;;;;;;;17.83;10.82;;;;;;;-148.14;100.00;65945.72;5090938;28;20028;-88
2022/07/20 08:23:48;;;;;;;18.33;11.93;;;;;;;-148.14;100.00;65945.72;5066426;28;20424;-90
2022/07/20 08:26:14;;;;;;;17.38;11.45;;;;;;;-148.14;100.00;65945.72;5049779;28;20119;-84
2022/07/20 08:28:40;;;;;;;20.45;11.25;;;;;;;-148.14;100.00;65945.72;5086514;28;20105;-89
2022/07/20 08:31:06;;;;;;;18.75;11.40;;;;;;;-148.14;100.00;65945.72;5089107;28;20369;-89
2022/07/20 08:33:31;;;;;;;20.27;11.18;;;;;;;-148.14;100.00;65945.72;5067898;28;20376;-89
2022/07/20 08:35:57;;;;;;;16.05;11.68;;;;;;;-148.14;100.00;65945.72;5060179;28;20036;-89
2022/07/20 08:38:22;;;;;;;20.13;11.55;;;;;;;-148.14;100.00;65945.72;5093423;28;20056;-90
2022/07/20 08:40:48;;;;;;;15.40;10.95;;;;;;;-148.14;100.00;65945.72;5071583;28;20048;-90
2022/07/20 08:43:17;;;;;;;16.30;11.32;;;;;;;-148.14;100.00;65945.72;5087615;28;20094;-90
2022/07/20 08:45:47;;;;;;;18.33;11.38;;;;;;;-148.14;100.00;65945.72;5087673;28;20039;-89
2022/07/20 08:48:17;;;;;;;13.82;10.40;;;;;;;-148.14;100.00;65945.72;5089933;28;20032;-90
2022/07/20 08:50:45;;;;;;;14.20;9.52;;;;;;;-148.14;100.00;65945.72;5069588;28;20021;-89
2022/07/20 08:53:11;;;;;;;17.23;9.68;;;;;;;-148.14;100.00;65945.72;5083339;28;20028;-89
2022/07/20 08:55:37;;;;;;;18.95;10.02;;;;;;;-148.14;100.00;65945.72;5070154;28;20043;-88
2022/07/20 08:58:02;;;;;;;16.98;10.27;;;;;;;-148.14;100.00;65945.72;5093472;28;20040;-89
2022/07/20 09:00:28;;;;;;;16.00;10.43;;;;;;;-148.14;100.00;65945.72;5086905;28;20093;-89
2022/07/20 09:03:02;;;;;;;15.98;10.65;;;;;;;-148.14;100.00;65945.72;5072033;28;20030;-89
2022/07/20 09:05:30;;;;;;;12.68;10.02;;;;;;;-148.14;100.00;65945.72;5085151;28;20039;-91
2022/07/20 09:08:00;;;;;;;16.98;10.13;;;;;;;-148.14;100.00;65945.72;5057380;28;20098;-88
2022/07/20 09:10:34;;;;;;;15.98;10.73;;;;;;;-148.14;100.00;65945.72;5092944;28;20024;-88
2022/07/20 09:13:13;;;;;;;15.73;11.00;;;;;;;-148.14;100.00;65945.72;5088580;28;20032;-88
2022/07/20 09:15:53;;;;;;;18.88;10.70;;;;;;;-148.14;100.00;65945.72;5060418;28;20032;-88
2022/07/20 09:18:28;;;;;;;17.02;10.70;;;;;;;-148.14;100.00;65945.72;5089011;28;20024;-89
2022/07/20 09:21:04;;;;;;;18.08;11.00;;;;;;;-148.14;100.00;65945.72;5090010;28;20115;-89
2022/07/20 09:23:41;;;;;;;16.15;10.52;;;;;;;-148.14;100.00;65945.72;5067479;28;20083;-88
2022/07/20 09:26:10;;;;;;;14.27;9.85;;;;;;;-148.14;100.00;65945.72;5066692;28;20036;-90
2022/07/20 09:28:52;;;;;;;18.27;10.23;;;;;;;-148.14;100.00;65945.72;5064291;28;20367;-87
2022/07/20 09:31:26;;;;;;;20.42;10.98;;;;;;;-148.14;100.00;65945.72;5066870;28;20111;-89
2022/07/20 09:34:13;;;;;;;21.17;11.05;;;;;;;-148.14;100.00;65945.72;5070093;28;20060;-88
2022/07/20 09:36:42;;;;;;;13.93;9.95;;;;;;;-148.14;100.00;65945.72;5066465;28;20020;-89
2022/07/20 09:39:12;;;;;;;13.93;9.90;;;;;;;-148.14;100.00;65945.72;5084630;28;20462;-90
2022/07/20 09:41:41;;;;;;;15.75;9.90;;;;;;;-148.14;100.00;65945.72;5062196;28;20071;-88
2022/07/20 09:44:19;;;;;;;14.15;10.30;;;;;;;-148.14;100.00;65945.72;5063273;28;20123;-89
2022/07/20 09:46:44;;;;;;;21.02;9.90;;;;;;;-148.14;100.00;65945.72;5064665;28;20020;-88
2022/07/20 09:49:11;;;;;;;18.15;10.50;;;;;;;-148.14;100.00;65945.72;5069074;28;20032;-88
2022/07/20 09:51:42;;;;;;;17.13;10.25;;;;;;;-148.14;100.00;65945.72;5084858;28;20381;-89
2022/07/20 09:54:24;;;;;;;17.40;9.93;;;;;;;-148.14;100.00;65945.72;5065132;28;20123;-88
2022/07/20 09:56:51;;;;;;;15.70;10.55;;;;;;;-148.14;100.00;65945.72;5049584;28;20040;-88
2022/07/20 09:59:19;;;;;;;19.58;9.73;;;;;;;-148.14;100.00;65945.72;5069559;28;20076;-89
2022/07/20 10:01:49;;;;;;;15.40;10.00;;;;;;;-148.14;100.00;65945.72;5090520;28;20028;-88
2022/07/20 10:04:15;;;;;;;14.73;10.35;;;;;;;-148.14;100.00;65945.72;5083009;28;20032;-88
2022/07/20 10:06:45;;;;;;;19.48;10.70;;;;;;;-148.14;100.00;65945.72;5065607;28;20024;-89
2022/07/20 10:09:17;;;;;;;18.40;10.32;;;;;;;-148.14;100.00;65945.72;5061933;28;20028;-87
2022/07/20 10:11:43;;;;;;;17.83;9.90;;;;;;;-148.14;100.00;65945.72;5076995;28;20085;-84
2022/07/20 10:14:09;;;;;;;15.13;10.65;;;;;;;-148.14;100.00;65945.72;5081408;28;20027;-84
2022/07/20 10:16:57;;;;;;;15.27;10.20;;;;;;;-148.14;100.00;65945.72;5062596;28;20067;-85
2022/07/20 10:19:46;;;;;;;16.58;10.40;;;;;;;-148.14;100.00;65945.72;5079970;28;20032;-84
2022/07/20 10:22:12;;;;;;;10.63;9.52;;;;;;;-148.14;100.00;65945.72;5083911;28;20133;-83
2022/07/20 10:24:39;;;;;;;16.48;9.60;;;;;;;-148.14;100.00;65945.72;5046684;28;20370;-83
2022/07/20 10:27:07;;;;;;;14.70;9.23;;;;;;;-148.14;100.00;65945.72;5067248;28;20034;-83
2022/07/20 10:29:39;;;;;;;14.00;9.95;;;;;;;-148.14;100.00;65945.72;5057812;28;20032;-83
2022/07/20 10:32:25;;;;;;;14.80;9.40;;;;;;;-148.14;100.00;65945.72;5064674;28;20425;-85
2022/07/20 10:34:58;;;;;;;14.77;9.77;;;;;;;-148.14;100.00;65945.72;5067091;28;20048;-88
2022/07/20 10:37:27;;;;;;;19.10;10.38;;;;;;;-148.14;100.00;65945.72;5067241;28;20020;-87
2022/07/20 10:40:17;;;;;;;15.88;10.13;;;;;;;-148.14;100.00;65945.72;5067424;28;20107;-87
2022/07/20 10:42:46;;;;;;;13.38;9.77;;;;;;;-148.14;100.00;65945.72;5098133;28;20121;-87
2022/07/20 10:45:15;;;;;;;12.45;9.45;;;;;;;-148.14;100.00;65945.72;5060602;28;20056;-85
2022/07/20 10:47:49;;;;;;;15.25;10.07;;;;;;;-148.14;100.00;65945.72;5064051;28;20382;-86
2022/07/20 10:50:27;;;;;;;15.63;10.70;;;;;;;-148.14;100.00;65945.72;5084371;28;20039;-88
2022/07/20 10:52:58;;;;;;;17.45;11.15;;;;;;;-148.14;100.00;65945.72;5064560;28;20036;-89
2022/07/20 10:55:33;;;;;;;13.20;9.88;;;;;;;-148.14;100.00;65945.72;5048670;28;20490;-86
2022/07/20 10:58:11;;;;;;;15.80;10.10;;;;;;;-148.14;100.00;65945.72;5062600;28;20047;-85
2022/07/20 11:00:46;;;;;;;14.02;9.50;;;;;;;-148.14;100.00;65945.72;5077567;28;20748;-84
2022/07/20 11:03:20;;;;;;;16.77;10.45;;;;;;;-148.14;100.00;65945.72;5058839;28;20020;-84
2022/07/20 11:05:47;;;;;;;18.13;10.13;;;;;;;-148.14;100.00;65945.72;5085444;28;20537;-86
2022/07/20 11:08:13;;;;;;;15.15;9.73;;;;;;;-148.14;100.00;65945.72;5082682;28;20481;-83
2022/07/20 11:10:41;;;;;;;14.55;9.60;;;;;;;-148.14;100.00;65945.72;5082655;28;20024;-86
2022/07/20 11:13:11;;;;;;;15.13;9.70;;;;;;;-148.14;100.00;65945.72;5083595;28;20036;-86